PWSweather.com
Personal Weather Stations
Station Observations
KAZPHOEN90
RayThunderhill, Phoenix, AZ

RayThunderhillPhoenix, AZ

Lat: 33.312, Lon: -112.029

Elevation: 1260

Station Type: Davis Vantage VUE

Latest ConditionsUpdated 10:30:02 AM MST Tuesday, Jul 28, 2015
Currently Today's Max Today's Min Today's Average
Temperature 97.8°F36.6°C 97.8°F36.6°C 83.9°F28.8°C 90.3°F32.4°C
Dew Point 58.2°F14.6°C 61.1°F16.2°C 56.7°F13.7°C 58.5°F14.7°C
Winds 1.2 mph N1.9 kmh N 3.3 mph WSW5.3 kmh WSW - 0.7 mph 1.1 kmh
Wind Gusts 2.0 mph3.2 kmh 7.0 mph11.3 kmh - -
Humidity 27% 44% 27% 35%
Pressure 29.75 in1007.5 mb 29.76 in1007.8 mb 29.65 in1004.1 mb -
Hour Temp Dew Point Humidity Winds Wind Gusts Pressure Precip Precip Rate Daily Precip Total
10:30 AM 97.8°F36.6°C 58.2°F14.6°C 27% 1.2 mph N1.9 kmh N 2.0 mph3.2 kmh 29.75 in1007.5 mb - 0.00 in0.0 mm 0.00 in0.0 mm
10:15 AM 97.0°F36.1°C 58.5°F14.7°C 28% 1.6 mph NNE2.6 kmh NNE 4.0 mph6.4 kmh 29.75 in1007.5 mb - 0.00 in0.0 mm 0.00 in0.0 mm
10:00 AM 95.2°F35.1°C 58.9°F14.9°C 30% 0.2 mph SE0.3 kmh SE 1.0 mph1.6 kmh 29.76 in1007.8 mb - 0.00 in0.0 mm 0.00 in0.0 mm
09:45 AM 93.3°F34.1°C 58.2°F14.6°C 31% 1.5 mph N2.4 kmh N 3.0 mph4.8 kmh 29.75 in1007.5 mb - 0.00 in0.0 mm 0.00 in0.0 mm
09:30 AM 92.7°F33.7°C 58.5°F14.7°C 32% 0.3 mph NE0.5 kmh NE 2.0 mph3.2 kmh 29.75 in1007.5 mb - 0.00 in0.0 mm 0.00 in0.0 mm
09:15 AM 92.8°F33.8°C 59.5°F15.3°C 33% 0.2 mph NW0.3 kmh NW -- 29.75 in1007.5 mb - 0.00 in0.0 mm 0.00 in0.0 mm
09:00 AM 93.4°F34.1°C 60.0°F15.6°C 33% 0.2 mph E0.3 kmh E 2.0 mph3.2 kmh 29.75 in1007.5 mb - 0.00 in0.0 mm 0.00 in0.0 mm
08:45 AM 92.3°F33.5°C 59.9°F15.5°C 34% 0.9 mph E1.4 kmh E 4.0 mph6.4 kmh 29.76 in1007.8 mb - 0.00 in0.0 mm 0.00 in0.0 mm
08:30 AM 91.1°F32.8°C 60.4°F15.8°C 36% 0.4 mph N0.6 kmh N 2.0 mph3.2 kmh 29.76 in1007.8 mb - 0.00 in0.0 mm 0.00 in0.0 mm
08:15 AM 90.5°F32.5°C 59.9°F15.5°C 36% Calm Calm 1.0 mph1.6 kmh 29.75 in1007.5 mb - 0.00 in0.0 mm 0.00 in0.0 mm
08:00 AM 89.7°F32.1°C 60.0°F15.6°C 37% 0.4 mph E0.6 kmh E 2.0 mph3.2 kmh 29.75 in1007.5 mb - 0.00 in0.0 mm 0.00 in0.0 mm
07:45 AM 88.9°F31.6°C 60.0°F15.6°C 38% 0.2 mph ESE0.3 kmh ESE 1.0 mph1.6 kmh 29.75 in1007.5 mb - 0.00 in0.0 mm 0.00 in0.0 mm
07:30 AM 88.1°F31.2°C 60.0°F15.6°C 39% Calm Calm -- 29.74 in1007.1 mb - 0.00 in0.0 mm 0.00 in0.0 mm
07:15 AM 88.1°F31.2°C 60.7°F15.9°C 40% Calm Calm 1.0 mph1.6 kmh 29.75 in1007.5 mb - 0.00 in0.0 mm 0.00 in0.0 mm
07:00 AM 86.2°F30.1°C 61.1°F16.2°C 43% 0.1 mph NNE0.2 kmh NNE 1.0 mph1.6 kmh 29.74 in1007.1 mb - 0.00 in0.0 mm 0.00 in0.0 mm
06:45 AM 85.2°F29.6°C 60.8°F16.0°C 44% Calm Calm -- 29.73 in1006.8 mb - 0.00 in0.0 mm 0.00 in0.0 mm
06:30 AM 84.6°F29.2°C 59.6°F15.3°C 43% Calm Calm -- 29.73 in1006.8 mb - 0.00 in0.0 mm 0.00 in0.0 mm
06:15 AM 83.9°F28.8°C 59.0°F15.0°C 43% Calm Calm -- 29.72 in1006.4 mb - 0.00 in0.0 mm 0.00 in0.0 mm
06:00 AM 84.1°F28.9°C 59.2°F15.1°C 43% Calm Calm -- 29.72 in1006.4 mb - 0.00 in0.0 mm 0.00 in0.0 mm
05:45 AM 84.4°F29.1°C 59.4°F15.2°C 43% Calm Calm -- 29.71 in1006.1 mb - 0.00 in0.0 mm 0.00 in0.0 mm
05:30 AM 85.1°F29.5°C 59.4°F15.2°C 42% Calm Calm -- 29.71 in1006.1 mb - 0.00 in0.0 mm 0.00 in0.0 mm
05:15 AM 85.9°F29.9°C 59.4°F15.2°C 41% Calm Calm -- 29.70 in1005.8 mb - 0.00 in0.0 mm 0.00 in0.0 mm
05:00 AM 86.8°F30.4°C 58.1°F14.5°C 38% Calm Calm -- 29.70 in1005.8 mb - 0.00 in0.0 mm 0.00 in0.0 mm
04:45 AM 87.9°F31.1°C 57.6°F14.2°C 36% 0.1 mph SSE0.2 kmh SSE -- 29.69 in1005.4 mb - 0.00 in0.0 mm 0.00 in0.0 mm
04:30 AM 88.0°F31.1°C 57.7°F14.3°C 36% Calm Calm -- 29.68 in1005.1 mb - 0.00 in0.0 mm 0.00 in0.0 mm
04:15 AM 88.9°F31.6°C 56.9°F13.8°C 34% Calm Calm -- 29.68 in1005.1 mb - 0.00 in0.0 mm 0.00 in0.0 mm
04:00 AM 89.3°F31.8°C 57.3°F14.1°C 34% Calm Calm 1.0 mph1.6 kmh 29.68 in1005.1 mb - 0.00 in0.0 mm 0.00 in0.0 mm
03:45 AM 89.9°F32.2°C 57.0°F13.9°C 33% 0.3 mph WNW0.5 kmh WNW 1.0 mph1.6 kmh 29.67 in1004.7 mb - 0.00 in0.0 mm 0.00 in0.0 mm
03:30 AM 89.9°F32.2°C 57.8°F14.3°C 34% 0.1 mph W0.2 kmh W 1.0 mph1.6 kmh 29.66 in1004.4 mb - 0.00 in0.0 mm 0.00 in0.0 mm
03:15 AM 90.3°F32.4°C 57.3°F14.1°C 33% 0.4 mph WSW0.6 kmh WSW 1.0 mph1.6 kmh 29.66 in1004.4 mb - 0.00 in0.0 mm 0.00 in0.0 mm
03:00 AM 90.6°F32.6°C 57.5°F14.2°C 33% 0.1 mph W0.2 kmh W 1.0 mph1.6 kmh 29.66 in1004.4 mb - 0.00 in0.0 mm 0.00 in0.0 mm
02:45 AM 91.3°F32.9°C 57.3°F14.1°C 32% Calm Calm -- 29.66 in1004.4 mb - 0.00 in0.0 mm 0.00 in0.0 mm
02:30 AM 91.6°F33.1°C 57.6°F14.2°C 32% 0.6 mph WSW1.0 kmh WSW 4.0 mph6.4 kmh 29.67 in1004.7 mb - 0.00 in0.0 mm 0.00 in0.0 mm
02:15 AM 91.9°F33.3°C 56.9°F13.8°C 31% 1.7 mph SW2.7 kmh SW 3.0 mph4.8 kmh 29.67 in1004.7 mb - 0.00 in0.0 mm 0.00 in0.0 mm
02:00 AM 92.2°F33.4°C 57.2°F14.0°C 31% 1.4 mph SW2.3 kmh SW 3.0 mph4.8 kmh 29.66 in1004.4 mb - 0.00 in0.0 mm 0.00 in0.0 mm
01:45 AM 92.1°F33.4°C 57.1°F13.9°C 31% 1.8 mph WSW2.9 kmh WSW 2.0 mph3.2 kmh 29.66 in1004.4 mb - 0.00 in0.0 mm 0.00 in0.0 mm
01:30 AM 92.7°F33.7°C 56.7°F13.7°C 30% 0.6 mph W1.0 kmh W 2.0 mph3.2 kmh 29.66 in1004.4 mb - 0.00 in0.0 mm 0.00 in0.0 mm
01:15 AM 92.9°F33.8°C 56.9°F13.8°C 30% 2.7 mph WSW4.3 kmh WSW 6.0 mph9.7 kmh 29.66 in1004.4 mb - 0.00 in0.0 mm 0.00 in0.0 mm
01:00 AM 93.1°F33.9°C 57.1°F13.9°C 30% 2.4 mph WSW3.9 kmh WSW 6.0 mph9.7 kmh 29.66 in1004.4 mb - 0.00 in0.0 mm 0.00 in0.0 mm
12:45 AM 93.4°F34.1°C 57.3°F14.1°C 30% 3.3 mph WSW5.3 kmh WSW 7.0 mph11.3 kmh 29.65 in1004.1 mb - 0.00 in0.0 mm 0.00 in0.0 mm
12:30 AM 93.8°F34.3°C 57.7°F14.3°C 30% 3.2 mph W5.1 kmh W 5.0 mph8.0 kmh 29.65 in1004.1 mb - 0.00 in0.0 mm 0.00 in0.0 mm
12:15 AM 94.1°F34.5°C 57.9°F14.4°C 30% 2.7 mph W4.3 kmh W 5.0 mph8.0 kmh 29.65 in1004.1 mb - 0.00 in0.0 mm 0.00 in0.0 mm